x

South Santa Rosa Is. Ca (46069) Wave Buoy

7:50am - Thu 17th Apr 2014 All times are PDT. -7 hours from GMT.

  • Sig Wave height 7.5ft
  • Peak Period 11s
  • Average Period 8s
  • Wind
    4mph, 7mph gusts
  • Sea Temp 58°f
  • 空気 Temp 57°f
  • Sea Pressure 1011.5mb
  • South Santa Rosa Is. Ca
  • South Santa Rosa Is. Ca

More Historic Weather Station data

Upgrade to MSW Pro to gain access to the past 30 days of data for over 8000 Wavebouys and Weather Stations around the globe.

Join Pro

Comparision Forecast

View Surf forecast
   
Thu 04/17 7:50am 7.5ft 11s 8s 4 7 mph 1011.5mb 58f 57f
6:50am 7ft 11s 8s 7 9 mph 1011.2mb 58f 57f
5:50am 7.5ft 11s 8s 9 11 mph 1010.3mb 58f 57f
4:50am 7.5ft 11s 8s 7
mph
1010.6mb 58f 57f
3:50am 9ft 11s 8s 2 4 mph 1010.5mb 58f 56f
2:50am 7.5ft 11s 7s 11 13 mph 1010.1mb 57f 56f
1:50am 7.5ft 11s 7s 13 16 mph 1010.5mb 57f 56f
12:50am 7ft 12s 7s 11 13 mph 1010.7mb 57f 56f
Wed 04/16 11:50pm 8ft 11s 6s 16 18 mph 1010.5mb 57f 56f
10:50pm 8ft 11s 6s 18 25 mph 1010.5mb 57f 57f
9:50pm 8.5ft 10s 7s 20 25 mph 1010.3mb 57f 57f
8:50pm 8ft 11s 6s 20 27 mph 1009.8mb 57f 57f
7:50pm 8ft 11s 6s 25 29 mph 1009.3mb 57f 57f
6:50pm 8ft 11s 7s 22 27 mph 1008.9mb 57f 57f
5:50pm 8.5ft 11s 7s 20 25 mph 1009.2mb 57f 57f
4:50pm 7.5ft 10s 7s 18 22 mph 1009.6mb 57f 57f
3:50pm 8.5ft 10s 7s 18 22 mph 1010.2mb 57f 57f
2:50pm 8.5ft 11s 7s 18 22 mph 1010.8mb 57f 57f
1:50pm 8.5ft 11s 7s 20 22 mph 1010.7mb 57f 56f
12:50pm 8.5ft 12s 7s 18 22 mph 1011.3mb 57f 55f
11:50am 8ft 11s 6s 18 22 mph 1011.6mb 57f 55f
10:50am 8.5ft 11s 6s 22 25 mph 1011.9mb 57f 55f
9:50am 9ft 9s 6s 20 29 mph 1011.4mb 57f 55f
8:50am 8.5ft 7s 6s 20 25 mph 1011.7mb 57f 55f
7:50am 9.5ft 10s 6s 25 29 mph 1011.3mb 57f 55f
6:50am 9ft 8s 6s 27 31 mph 1010.6mb 57f 55f
5:50am 9ft 11s 6s 27 34 mph 1010.5mb 57f 55f
4:50am 8.5ft 11s 6s 25 31 mph 1010.5mb 57f 56f
3:50am 9ft 11s 6s 27 34 mph 1010.5mb 57f 56f
2:50am 9ft 12s 6s 29 34 mph 1010mb 57f 56f
1:50am 9.5ft 10s 6s 25 34 mph 1010.8mb 57f 56f
12:50am 9ft 10s 6s 25 31 mph 1011.5mb 57f 56f
Tue 04/15 11:50pm 8.5ft 6s 6s 27 31 mph 1011.3mb 57f 56f
10:50pm 9ft 10s 6s 27 34 mph 1011.3mb 57f 56f
9:50pm 9ft 10s 6s 25 29 mph 1011.9mb 57f 56f
8:50pm 7.5ft 13s 6s 25 29 mph 1011.4mb 57f 57f
7:50pm 8ft 13s 6s 22 27 mph 1011.1mb 57f 56f
6:50pm 6.5ft 6s 6s 25 29 mph 1011.4mb 57f 57f
5:50pm 7ft 8s 5s 25 29 mph 1011.5mb 57f 56f
4:50pm 6.5ft 14s 5s 25 29 mph 1011.7mb 57f 56f
3:50pm 7ft 6s 5s 22 27 mph 1012.2mb 57f 56f
2:50pm 7ft 14s 6s 20 25 mph 1013.1mb 57f 55f
1:50pm 6.5ft 7s 6s 18 22 mph 1014mb 57f 56f
12:50pm 6ft 14s 6s 18 22 mph 1014.5mb 58f 55f
11:50am 5.5ft 13s 5s 18 22 mph 1015.2mb 58f 55f
10:50am 6.5ft 14s 6s 18 22 mph 1015.5mb 58f 55f
9:50am 6.5ft 14s 6s 20 22 mph 1015.7mb 58f 55f
8:50am 6ft 14s 6s 18 22 mph 1015.3mb 58f 55f
7:50am 6ft 14s 5s 18 22 mph 1015mb 58f 55f
6:50am 7ft 15s 6s 20 22 mph 1014.8mb 58f 54f
5:50am 6ft 14s 6s 18 22 mph 1014.3mb 58f 54f
4:50am 6ft 14s 6s 18 20 mph 1014.7mb 58f 55f
3:50am 6ft 14s 6s 20 25 mph 1015.1mb 58f 55f
2:50am 6ft 14s 6s 20 25 mph 1015.5mb 58f 55f
1:50am 6ft 15s 6s 18 22 mph 1016mb 58f 55f
12:50am 5ft 15s 6s 18 22 mph 1016.7mb 59f 55f
Mon 04/14 11:50pm 5ft 15s 6s 18 22 mph 1016.3mb 59f 54f
10:50pm 5ft 15s 6s 20 22 mph 1016.7mb 59f 55f
9:50pm 5.5ft 15s 6s 18 20 mph 1017.1mb 59f 55f
8:50pm 5ft 15s 5s 18 25 mph 1016.9mb 59f 55f
7:50pm 4ft 14s 5s 20 22 mph 1016.7mb 59f 56f
6:50pm 4.5ft 15s 6s 18 22 mph 1016.3mb 59f 56f
5:50pm 5ft 15s 7s 18 20 mph 1016.5mb 59f 57f
3:50pm 5.5ft 15s 8s 13 16 mph 1017.5mb 59f 56f
2:50pm 4.5ft 15s 7s 16 18 mph 1018.2mb 59f 56f
1:50pm 5ft 16s 8s 13 16 mph 1018.9mb 59f 56f
12:50pm 5.5ft 15s 8s 11 13 mph 1019.4mb 59f 56f
11:50am 5ft 16s 8s 9 13 mph 1019.7mb 59f 56f
10:50am 5ft 16s 8s 9 11 mph 1019.2mb 59f 55f
9:50am 5.5ft 16s 8s 9 11 mph 1018.9mb 59f 55f
8:50am 5ft 16s 7s 9 11 mph 1018.1mb 59f 55f
7:50am 5ft 16s 7s 9 11 mph 1017.6mb 58f 55f
6:50am 4.5ft 16s 6s 13 16 mph 1017.2mb 58f 55f
5:50am 5ft 16s 6s 13 18 mph 1016.8mb 58f 55f
4:50am 4.5ft 11s 6s 13 16 mph 1016.5mb 59f 55f
3:50am 5ft 16s 6s 13 16 mph 1016.7mb 59f 55f
2:50am 5ft 10s 6s 16 18 mph 1016.4mb 59f 55f
1:50am 5ft 10s 5s 18 20 mph 1016.6mb 59f 55f
12:50am 5ft 10s 5s 20 22 mph 1016.8mb 59f 55f
Sun 04/13 11:50pm 5ft 6s 5s 20 25 mph 1017mb 59f 56f
10:50pm 5ft 5s 5s 20 25 mph 1016.7mb 59f 56f
9:50pm 5ft 5s 5s 20 27 mph 1017mb 59f 56f
8:50pm 4.5ft 5s 4s 20 27 mph 1016.5mb 59f 56f
7:50pm 4.5ft 10s 5s 20 25 mph 1015.8mb 59f 56f
6:50pm 4ft 5s 4s 20 25 mph 1015.5mb 59f 56f
5:50pm 4ft 9s 5s 20 22 mph 1015.4mb 59f 57f
4:50pm 3.5ft 10s 5s 18 20 mph 1015.6mb 59f 57f
3:50pm 3.5ft 9s 5s 13 18 mph 1016.1mb 59f 57f